Staraja Russa, Russia
Current Conditions -  °F | °C
As of 9:30 AM on Monday 26 Jan 2015 (Local Time) from ULOO Reporting Station
Light Snow Light Snow  
Wind Chill: 15°   Ceiling: 900
Heat Index: 23°   Visibility: 2.7mi
Dew Point: 21°   Wind: 7mph
Humidity: 93%   Direction: 170°S
Pressure: 30.12"   Gusts: NA
Location:  57.99°N, 31.36°E
Report Text: ULOO 260630Z 17003MPS 4400 -SN OVC009 M05/M06 Q1020 19990333NOSIG RMK QFE761
Loading
Personal Weather Stations






























Interactive Weather Map New forecast layout! Learn more

10-Day Weather Forecast

Advertisements
Track Severe Weather on mobile